Time;durP1;ratioP1;P1;durP2;ratioP2;P2;SDS_P1;SDS_P2;PMS_P1;PMS_P2;Temp;Humidity;BMP_temperature;BMP_pressure;BME280_temperature;BME280_humidity;BME280_pressure;Samples;Min_cycle;Max_cycle;Signal;HPM_P1;HPM_P2
2022/12/18 00:01:40;;;;;;;19.70;13.43;;;15.10;99.90;;;;;;4971025;28;20588;-77
2022/12/18 00:04:21;;;;;;;18.10;11.90;;;15.10;99.90;;;;;;4951307;28;20043;-75
2022/12/18 00:06:50;;;;;;;34.65;22.75;;;15.00;99.90;;;;;;4962571;28;20109;-77
2022/12/18 00:09:20;;;;;;;34.15;20.80;;;15.00;99.90;;;;;;4950664;29;20062;-80
2022/12/18 00:11:51;;;;;;;29.25;18.00;;;15.00;99.90;;;;;;4950940;28;20134;-75
2022/12/18 00:14:19;;;;;;;26.60;18.10;;;14.90;99.90;;;;;;4958293;28;20468;-75
2022/12/18 00:16:47;;;;;;;20.02;13.02;;;14.90;99.90;;;;;;4966706;28;20047;-73
2022/12/18 00:19:15;;;;;;;19.05;11.63;;;15.00;99.90;;;;;;4948796;28;20047;-77
2022/12/18 00:21:43;;;;;;;18.63;12.00;;;15.00;99.90;;;;;;4960733;28;20458;-78
2022/12/18 00:24:11;;;;;;;21.58;13.18;;;14.90;99.90;;;;;;4963674;28;20043;-76
2022/12/18 00:26:40;;;;;;;21.55;12.73;;;14.90;99.90;;;;;;4964563;28;20043;-77
2022/12/18 00:29:11;;;;;;;14.45;11.95;;;14.90;99.90;;;;;;4969305;28;20095;-77
2022/12/18 00:31:40;;;;;;;13.13;9.50;;;14.90;99.90;;;;;;4970597;28;20039;-77
2022/12/18 00:34:11;;;;;;;18.58;12.15;;;15.00;99.90;;;;;;4950343;29;20084;-77
2022/12/18 00:36:42;;;;;;;19.95;12.43;;;15.00;99.90;;;;;;4965051;28;20046;-76
2022/12/18 00:39:12;;;;;;;21.20;10.98;;;15.00;99.90;;;;;;4943640;28;20054;-76
2022/12/18 00:44:25;;;;;;;10.75;6.25;;;15.00;99.90;;;;;;4968789;28;20054;-76
2022/12/18 00:46:52;;;;;;;9.80;5.88;;;14.90;99.90;;;;;;4965756;28;20412;-76
2022/12/18 00:49:20;;;;;;;5.47;3.47;;;14.90;99.90;;;;;;4949906;28;20362;-76
2022/12/18 00:51:49;;;;;;;7.20;4.07;;;14.90;99.90;;;;;;4935364;29;20089;-75
2022/12/18 00:54:17;;;;;;;9.13;5.10;;;14.90;99.90;;;;;;4935473;29;20051;-76
2022/12/18 00:56:44;;;;;;;7.47;5.88;;;14.90;99.90;;;;;;4954359;28;20505;-77
2022/12/18 00:59:16;;;;;;;10.02;6.38;;;14.80;99.90;;;;;;4969610;28;20053;-75
2022/12/18 01:01:44;;;;;;;9.52;6.03;;;14.90;99.90;;;;;;4963189;28;20078;-76
2022/12/18 01:04:12;;;;;;;5.43;3.70;;;14.90;99.90;;;;;;4935059;29;20051;-76
2022/12/18 01:06:40;;;;;;;4.22;2.90;;;14.90;99.90;;;;;;4961152;28;20092;-76
2022/12/18 01:09:07;;;;;;;5.57;2.38;;;14.80;99.90;;;;;;4945263;29;20284;-76
2022/12/18 01:11:36;;;;;;;4.97;2.72;;;14.80;99.90;;;;;;4950251;29;20178;-76
2022/12/18 01:14:04;;;;;;;3.28;2.30;;;14.80;99.90;;;;;;4951065;29;20107;-77
2022/12/18 01:16:32;;;;;;;3.63;2.35;;;14.80;99.90;;;;;;4953352;28;20576;-78
2022/12/18 01:18:59;;;;;;;4.45;2.90;;;14.80;99.90;;;;;;4959651;28;20262;-74
2022/12/18 01:21:27;;;;;;;5.47;2.85;;;14.80;99.90;;;;;;4951887;28;20107;-78
2022/12/18 01:23:56;;;;;;;3.38;2.30;;;14.80;99.90;;;;;;4952265;29;20116;-75
2022/12/18 01:26:25;;;;;;;6.15;2.85;;;14.80;99.90;;;;;;4966897;28;20134;-73
2022/12/18 01:28:56;;;;;;;4.13;2.15;;;14.80;99.90;;;;;;4954062;28;20047;-75
2022/12/18 01:31:26;;;;;;;4.10;2.13;;;14.80;99.90;;;;;;4931679;29;20450;-76
2022/12/18 01:33:55;;;;;;;6.40;2.10;;;14.80;99.90;;;;;;4916292;29;20115;-77
2022/12/18 01:36:34;;;;;;;4.85;1.75;;;14.80;99.90;;;;;;4915676;29;20054;-77
2022/12/18 01:39:05;;;;;;;31.20;2.35;;;14.80;99.90;;;;;;4932554;29;20059;-77
2022/12/18 01:44:51;;;;;;;3.13;1.60;;;14.70;99.90;;;;;;4913499;29;20066;-77
2022/12/18 01:47:37;;;;;;;3.30;1.52;;;14.70;99.90;;;;;;4915905;29;20048;-77
2022/12/18 01:50:12;;;;;;;2.45;1.60;;;14.60;99.90;;;;;;4937796;29;20050;-76
2022/12/18 01:52:43;;;;;;;5.10;2.38;;;14.70;99.90;;;;;;4920266;29;20107;-78
2022/12/18 01:55:12;;;;;;;3.38;2.20;;;14.60;99.90;;;;;;4931374;29;20040;-78
2022/12/18 01:57:41;;;;;;;4.05;1.90;;;14.60;99.90;;;;;;4912759;29;20071;-77
2022/12/18 02:00:13;;;;;;;4.20;2.13;;;14.60;99.90;;;;;;4919976;29;20071;-76
2022/12/18 02:02:43;;;;;;;5.80;2.58;;;14.50;99.90;;;;;;4904803;29;20063;-77
2022/12/18 02:05:21;;;;;;;3.88;2.20;;;14.50;99.90;;;;;;4914253;29;20078;-77
2022/12/18 02:08:12;;;;;;;4.38;3.08;;;14.50;99.90;;;;;;4925582;29;20051;-77
2022/12/18 02:11:02;;;;;;;6.28;4.55;;;14.60;99.90;;;;;;4930328;29;20090;-77
2022/12/18 02:13:34;;;;;;;10.32;5.53;;;14.50;99.90;;;;;;4911833;29;20131;-78
2022/12/18 02:16:34;;;;;;;10.85;6.18;;;14.50;99.90;;;;;;4910755;29;20055;-76
2022/12/18 02:19:16;;;;;;;8.32;6.07;;;14.50;99.90;;;;;;4921385;29;20051;-76
2022/12/18 02:22:06;;;;;;;11.23;7.30;;;14.50;99.90;;;;;;4923887;29;20080;-77
2022/12/18 02:24:43;;;;;;;15.90;8.35;;;14.50;99.90;;;;;;4923439;29;20054;-74
2022/12/18 02:27:12;;;;;;;10.13;7.80;;;14.40;99.90;;;;;;4915443;29;20451;-76
2022/12/18 02:29:53;;;;;;;12.35;9.13;;;14.40;99.90;;;;;;4934586;28;20062;-75
2022/12/18 02:32:32;;;;;;;16.13;10.07;;;14.30;99.90;;;;;;4949029;29;20043;-75
2022/12/18 02:35:03;;;;;;;10.63;7.68;;;14.20;99.90;;;;;;4966128;28;20054;-76
2022/12/18 02:37:33;;;;;;;9.98;5.85;;;14.10;99.90;;;;;;4970965;28;20515;-77
2022/12/18 02:40:04;;;;;;;8.00;5.07;;;14.00;99.90;;;;;;4970170;28;20050;-76
2022/12/18 02:42:35;;;;;;;8.80;4.78;;;13.90;99.90;;;;;;4973199;28;20149;-76
2022/12/18 02:45:05;;;;;;;6.25;3.92;;;13.90;99.90;;;;;;4957105;28;20047;-75
2022/12/18 02:47:39;;;;;;;9.18;3.85;;;13.90;99.90;;;;;;4964718;28;20105;-76
2022/12/18 02:50:27;;;;;;;7.95;3.92;;;13.80;99.90;;;;;;4953417;29;20101;-75
2022/12/18 02:53:14;;;;;;;7.38;3.25;;;13.90;99.90;;;;;;4953437;29;20498;-76
2022/12/18 02:55:54;;;;;;;6.20;3.70;;;13.90;99.90;;;;;;4969351;28;20050;-75
2022/12/18 02:58:44;;;;;;;9.63;4.28;;;14.00;99.90;;;;;;4962352;28;20043;-75
2022/12/18 03:01:35;;;;;;;5.15;3.63;;;14.00;99.90;;;;;;4953308;29;20054;-74
2022/12/18 03:04:28;;;;;;;7.20;5.30;;;14.00;99.90;;;;;;4922167;29;20043;-74
2022/12/18 03:07:01;;;;;;;9.20;4.13;;;14.10;99.90;;;;;;4948691;28;20062;-75
2022/12/18 03:09:38;;;;;;;5.78;4.07;;;14.10;99.90;;;;;;4969890;28;20061;-75
2022/12/18 03:12:35;;;;;;;6.15;3.67;;;14.20;99.90;;;;;;4972374;28;20043;-75
2022/12/18 03:15:10;;;;;;;6.38;3.85;;;14.10;99.90;;;;;;4972571;28;20046;-75
2022/12/18 03:17:46;;;;;;;6.53;4.32;;;14.20;99.90;;;;;;4971352;28;20385;-76
2022/12/18 03:20:18;;;;;;;7.07;4.00;;;14.20;99.90;;;;;;4954499;28;20035;-76
2022/12/18 03:22:55;;;;;;;8.23;5.20;;;14.20;99.90;;;;;;4953038;29;20044;-75
2022/12/18 03:25:26;;;;;;;5.32;4.18;;;14.20;99.90;;;;;;4937370;29;20047;-75
2022/12/18 03:27:58;;;;;;;10.07;3.72;;;14.20;99.90;;;;;;4961935;28;20050;-75
2022/12/18 03:30:30;;;;;;;5.15;3.30;;;14.30;99.90;;;;;;4954447;28;20194;-75
2022/12/18 03:33:17;;;;;;;9.75;4.03;;;14.40;99.90;;;;;;4937385;29;20040;-75
2022/12/18 03:35:47;;;;;;;8.00;4.20;;;14.40;99.90;;;;;;4952870;29;20123;-75
2022/12/18 03:38:17;;;;;;;5.75;4.30;;;14.40;99.90;;;;;;4944992;29;20134;-75
2022/12/18 03:40:53;;;;;;;8.25;4.30;;;14.40;99.90;;;;;;4952822;29;20062;-75
2022/12/18 03:43:36;;;;;;;7.47;4.30;;;14.40;99.90;;;;;;4953148;29;20052;-75
2022/12/18 03:46:16;;;;;;;12.77;6.25;;;14.40;99.90;;;;;;4952833;29;20074;-75
2022/12/18 03:48:50;;;;;;;8.40;4.63;;;14.50;99.90;;;;;;4961039;28;20138;-75
2022/12/18 03:51:28;;;;;;;7.93;5.38;;;14.40;99.90;;;;;;4952930;29;20078;-75
2022/12/18 03:53:58;;;;;;;7.88;5.22;;;14.40;99.90;;;;;;4952580;29;20047;-75
2022/12/18 03:56:35;;;;;;;9.32;4.55;;;14.40;99.90;;;;;;4952806;29;20051;-75
2022/12/18 03:59:05;;;;;;;8.45;5.25;;;14.40;99.90;;;;;;4971586;28;20049;-75
2022/12/18 04:01:38;;;;;;;11.35;5.65;;;14.30;99.90;;;;;;4971246;28;20049;-75
2022/12/18 04:04:08;;;;;;;6.05;4.30;;;14.30;99.90;;;;;;4955847;28;20046;-75
2022/12/18 04:06:39;;;;;;;8.93;4.90;;;14.30;99.90;;;;;;4972401;28;20050;-75
2022/12/18 04:09:10;;;;;;;9.30;6.72;;;14.30;99.90;;;;;;4947463;28;20053;-75
2022/12/18 04:11:45;;;;;;;9.27;4.85;;;14.20;99.90;;;;;;4972364;28;20121;-75
2022/12/18 04:14:14;;;;;;;10.27;4.72;;;14.20;99.90;;;;;;4968538;28;20126;-75
2022/12/18 04:16:44;;;;;;;10.00;5.70;;;14.20;99.90;;;;;;4970431;28;20442;-75
2022/12/18 04:19:15;;;;;;;12.05;7.03;;;14.10;99.90;;;;;;4946449;28;20205;-75
2022/12/18 04:21:44;;;;;;;7.80;5.30;;;14.10;99.90;;;;;;4955149;28;20781;-75
2022/12/18 04:24:13;;;;;;;8.45;5.45;;;14.00;99.90;;;;;;4955370;28;20051;-76
2022/12/18 04:26:49;;;;;;;11.45;5.72;;;14.00;99.90;;;;;;4970226;28;20070;-75
2022/12/18 04:29:22;;;;;;;8.25;5.22;;;14.00;99.90;;;;;;4965127;28;20050;-75
2022/12/18 04:31:50;;;;;;;9.00;5.20;;;14.00;99.90;;;;;;4970864;28;20435;-75
2022/12/18 04:34:18;;;;;;;7.25;5.38;;;14.00;99.90;;;;;;4955240;28;20688;-75
2022/12/18 04:36:50;;;;;;;8.65;5.72;;;14.00;99.90;;;;;;4954212;28;20054;-75
2022/12/18 04:39:18;;;;;;;7.80;5.57;;;14.10;99.90;;;;;;4944608;28;20031;-75
2022/12/18 04:41:48;;;;;;;9.23;5.18;;;14.00;99.90;;;;;;4971185;28;20395;-75
2022/12/18 04:44:15;;;;;;;13.10;5.97;;;14.00;99.90;;;;;;4970979;28;20043;-75
2022/12/18 04:46:43;;;;;;;7.85;5.03;;;14.00;99.90;;;;;;4972333;28;20035;-75
2022/12/18 04:49:11;;;;;;;8.98;5.75;;;14.00;99.90;;;;;;4963588;28;20134;-75
2022/12/18 04:51:38;;;;;;;8.48;5.57;;;14.00;99.90;;;;;;4972098;28;20058;-76
2022/12/18 04:54:06;;;;;;;10.98;6.05;;;14.00;99.90;;;;;;4970159;28;20042;-77
2022/12/18 04:56:33;;;;;;;8.18;5.35;;;14.00;99.90;;;;;;4954501;28;20057;-76
2022/12/18 04:59:00;;;;;;;9.48;6.53;;;14.00;99.90;;;;;;4961719;28;20129;-75
2022/12/18 05:01:28;;;;;;;8.27;5.07;;;14.00;99.90;;;;;;4970598;28;20061;-75
2022/12/18 05:03:58;;;;;;;7.53;6.07;;;14.00;99.90;;;;;;4970878;28;20389;-75
2022/12/18 05:06:26;;;;;;;9.57;6.75;;;14.00;99.90;;;;;;4938843;28;20054;-75
2022/12/18 05:08:53;;;;;;;9.65;5.80;;;14.00;99.90;;;;;;4944623;28;20065;-76
2022/12/18 05:11:21;;;;;;;7.72;5.40;;;14.00;99.90;;;;;;4971750;28;20058;-75
2022/12/18 05:13:48;;;;;;;9.77;5.82;;;13.90;99.90;;;;;;4971625;28;20143;-75
2022/12/18 05:16:16;;;;;;;9.30;6.18;;;13.90;99.90;;;;;;4971862;28;20701;-76
2022/12/18 05:18:43;;;;;;;10.60;6.55;;;14.00;99.90;;;;;;4964546;28;20848;-75
2022/12/18 05:21:10;;;;;;;10.35;6.03;;;13.90;99.90;;;;;;4971903;28;20057;-75
2022/12/18 05:23:38;;;;;;;5.70;4.65;;;13.90;99.90;;;;;;4971603;28;20109;-75
2022/12/18 05:26:07;;;;;;;9.73;4.90;;;13.80;99.90;;;;;;4971334;28;20062;-76
2022/12/18 05:28:36;;;;;;;8.25;5.30;;;13.80;99.90;;;;;;4966783;28;20203;-76
2022/12/18 05:31:04;;;;;;;9.05;5.97;;;13.80;99.90;;;;;;4950755;29;20061;-75
2022/12/18 05:33:34;;;;;;;9.80;5.10;;;13.80;99.90;;;;;;4951962;28;20143;-76
2022/12/18 05:36:03;;;;;;;7.68;5.10;;;13.70;99.90;;;;;;4950772;29;20043;-76
2022/12/18 05:38:32;;;;;;;9.15;5.40;;;13.80;99.90;;;;;;4962545;28;20186;-75
2022/12/18 05:41:00;;;;;;;8.68;6.45;;;13.80;99.90;;;;;;4934987;29;20040;-75
2022/12/18 05:43:27;;;;;;;9.13;4.30;;;13.80;99.90;;;;;;4950745;29;20141;-78
2022/12/18 05:45:56;;;;;;;7.75;5.53;;;13.80;99.90;;;;;;4951832;28;20154;-75
2022/12/18 05:48:24;;;;;;;8.63;6.45;;;13.80;99.90;;;;;;4960051;28;20050;-75
2022/12/18 05:50:51;;;;;;;10.40;5.55;;;13.80;99.90;;;;;;4951008;28;20070;-75
2022/12/18 05:53:20;;;;;;;8.70;4.80;;;13.90;99.90;;;;;;4949736;29;20047;-75
2022/12/18 05:55:48;;;;;;;12.75;5.25;;;13.80;99.90;;;;;;4950174;29;20067;-75
2022/12/18 05:58:16;;;;;;;6.55;5.40;;;13.80;99.90;;;;;;4961117;28;20046;-75
2022/12/18 06:00:45;;;;;;;7.10;4.63;;;13.80;99.90;;;;;;4951532;28;20051;-76
2022/12/18 06:03:13;;;;;;;8.60;5.38;;;13.80;99.90;;;;;;4951193;28;20127;-75
2022/12/18 06:05:43;;;;;;;5.57;4.78;;;13.80;99.90;;;;;;4935547;29;20466;-77
2022/12/18 06:08:12;;;;;;;5.82;4.38;;;13.80;99.90;;;;;;4944141;28;20047;-74
2022/12/18 06:10:40;;;;;;;8.85;4.43;;;13.80;99.90;;;;;;4969228;28;20134;-75
2022/12/18 06:13:08;;;;;;;6.13;4.30;;;13.80;99.90;;;;;;4969445;28;20134;-75
2022/12/18 06:15:39;;;;;;;7.43;4.65;;;13.80;99.90;;;;;;4953489;28;20122;-76
2022/12/18 06:18:06;;;;;;;6.50;3.50;;;13.80;99.90;;;;;;4969585;28;20043;-75
2022/12/18 06:20:36;;;;;;;8.18;4.07;;;13.70;99.90;;;;;;4970153;28;20106;-75
2022/12/18 06:23:04;;;;;;;6.07;4.15;;;13.80;99.90;;;;;;4953644;28;20552;-75
2022/12/18 06:25:32;;;;;;;8.43;4.00;;;13.80;99.90;;;;;;4970868;28;20046;-77
2022/12/18 06:27:59;;;;;;;11.65;5.00;;;13.80;99.90;;;;;;4960779;28;20146;-76
2022/12/18 06:30:27;;;;;;;8.70;4.25;;;13.80;99.90;;;;;;4966325;28;20081;-75
2022/12/18 06:32:54;;;;;;;8.73;3.78;;;13.80;99.90;;;;;;4969393;28;20055;-75
2022/12/18 06:35:22;;;;;;;6.97;4.05;;;13.80;99.90;;;;;;4970456;28;20202;-75
2022/12/18 06:37:50;;;;;;;5.60;2.85;;;13.90;99.90;;;;;;4961438;28;20051;-75
2022/12/18 06:40:18;;;;;;;6.97;3.42;;;13.90;99.90;;;;;;4962175;28;20109;-76
2022/12/18 06:42:45;;;;;;;9.65;3.70;;;13.90;99.90;;;;;;4968983;28;20445;-76
2022/12/18 06:45:13;;;;;;;5.35;2.80;;;13.90;99.90;;;;;;4969431;28;20045;-75
2022/12/18 06:47:40;;;;;;;4.78;3.20;;;13.90;99.90;;;;;;4962868;28;20050;-75
2022/12/18 06:50:08;;;;;;;5.78;4.35;;;13.90;99.90;;;;;;4963376;28;20101;-75
2022/12/18 06:52:36;;;;;;;11.90;4.20;;;13.90;99.90;;;;;;4969410;28;20058;-76
2022/12/18 06:55:04;;;;;;;8.02;4.15;;;13.90;99.90;;;;;;4969117;28;20051;-75
2022/12/18 06:57:32;;;;;;;6.80;4.63;;;13.90;99.90;;;;;;4965484;28;20066;-76
2022/12/18 06:59:59;;;;;;;16.33;7.32;;;14.00;99.90;;;;;;4961696;28;20078;-75
2022/12/18 07:02:27;;;;;;;6.55;5.45;;;14.00;99.90;;;;;;4968607;28;20050;-76
2022/12/18 07:04:54;;;;;;;8.55;5.50;;;14.00;99.90;;;;;;4968960;28;20051;-76
2022/12/18 07:07:22;;;;;;;11.05;6.10;;;14.00;99.90;;;;;;4965590;28;20050;-75
2022/12/18 07:09:50;;;;;;;7.15;4.35;;;14.00;99.90;;;;;;4944424;28;20141;-75
2022/12/18 07:12:18;;;;;;;7.88;5.53;;;14.10;99.90;;;;;;4970126;28;20489;-75
2022/12/18 07:14:46;;;;;;;7.35;4.88;;;14.10;99.90;;;;;;4952814;28;20043;-74
2022/12/18 07:17:13;;;;;;;8.05;5.50;;;14.10;99.90;;;;;;4968074;28;20042;-75
2022/12/18 07:19:41;;;;;;;9.63;5.38;;;14.10;99.90;;;;;;4964403;28;20055;-75
2022/12/18 07:22:08;;;;;;;13.75;6.30;;;14.20;99.90;;;;;;4969295;28;20097;-76
2022/12/18 07:24:36;;;;;;;8.23;6.10;;;14.30;99.90;;;;;;4973796;28;20417;-75
2022/12/18 07:27:04;;;;;;;12.25;4.68;;;14.30;99.90;;;;;;4972029;28;20600;-76
2022/12/18 07:29:31;;;;;;;12.27;5.45;;;14.40;99.90;;;;;;4964071;28;20074;-76
2022/12/18 07:31:59;;;;;;;12.25;5.43;;;14.50;99.90;;;;;;4953259;28;20506;-76
2022/12/18 07:34:26;;;;;;;9.38;4.93;;;14.60;99.90;;;;;;4954384;28;20098;-75
2022/12/18 07:36:54;;;;;;;6.65;4.80;;;14.70;99.90;;;;;;4953986;29;20130;-75
2022/12/18 07:39:21;;;;;;;12.73;4.72;;;14.80;99.90;;;;;;4966485;28;20051;-76
2022/12/18 07:42:30;;;;;;;5.90;4.97;;;14.90;99.90;;;;;;4953624;28;20049;-75
2022/12/18 07:44:39;;;;;;;8.88;4.45;;;15.00;99.90;;;;;;4954076;28;20118;-75
2022/12/18 07:47:07;;;;;;;13.27;6.10;;;15.10;99.90;;;;;;4937319;28;20066;-77
2022/12/18 07:49:38;;;;;;;7.70;4.45;;;15.10;99.90;;;;;;4963540;28;20100;-74
2022/12/18 07:52:05;;;;;;;14.57;4.97;;;15.10;99.90;;;;;;4953042;28;20070;-74
2022/12/18 07:54:33;;;;;;;8.07;4.75;;;15.10;99.90;;;;;;4952168;29;20099;-75
2022/12/18 07:57:01;;;;;;;8.20;5.43;;;15.00;99.90;;;;;;4952162;28;20466;-76
2022/12/18 07:59:28;;;;;;;7.40;5.15;;;15.10;99.90;;;;;;4947347;29;20046;-75
2022/12/18 08:01:56;;;;;;;9.57;5.10;;;15.20;99.90;;;;;;4936335;29;20051;-75
2022/12/18 08:04:23;;;;;;;10.30;6.10;;;15.30;99.90;;;;;;4952099;29;20108;-75
2022/12/18 08:06:51;;;;;;;7.93;4.70;;;15.30;99.90;;;;;;4952766;28;20048;-76
2022/12/18 08:09:19;;;;;;;11.80;4.80;;;15.30;99.90;;;;;;4966412;28;20051;-76
2022/12/18 08:11:47;;;;;;;9.25;5.38;;;15.30;99.90;;;;;;4952200;28;20054;-76
2022/12/18 08:14:14;;;;;;;8.10;4.85;;;15.30;99.90;;;;;;4953750;28;20078;-75
2022/12/18 08:16:42;;;;;;;14.43;5.82;;;15.30;99.90;;;;;;4971411;28;20050;-76
2022/12/18 08:19:09;;;;;;;8.02;4.45;;;15.40;99.90;;;;;;4971396;28;20043;-75
2022/12/18 08:21:42;;;;;;;11.75;5.53;;;15.50;99.90;;;;;;4954971;28;20050;-76
2022/12/18 08:24:10;;;;;;;9.38;5.10;;;15.60;99.90;;;;;;4972333;28;20050;-75
2022/12/18 08:26:38;;;;;;;9.13;4.45;;;15.60;99.90;;;;;;4972421;28;20382;-74
2022/12/18 08:29:06;;;;;;;8.95;3.80;;;15.70;99.90;;;;;;4958237;28;20098;-75
2022/12/18 08:31:33;;;;;;;8.60;3.95;;;15.80;99.90;;;;;;4954514;28;20069;-76
2022/12/18 08:34:01;;;;;;;7.22;3.85;;;16.00;99.90;;;;;;4970750;28;20073;-75
2022/12/18 08:36:28;;;;;;;10.02;3.45;;;16.30;99.90;;;;;;4975835;28;20053;-76
2022/12/18 08:38:56;;;;;;;8.70;4.53;;;16.50;99.90;;;;;;4950216;28;20058;-75
2022/12/18 08:41:24;;;;;;;7.47;4.07;;;16.80;99.90;;;;;;4959587;28;20050;-75
2022/12/18 08:46:40;;;;;;;5.93;3.45;;;17.20;99.90;;;;;;4958749;28;20539;-76
2022/12/18 08:49:09;;;;;;;5.63;3.47;;;17.30;99.90;;;;;;4960211;28;20051;-76
2022/12/18 08:51:37;;;;;;;7.68;3.95;;;17.30;99.90;;;;;;4956548;28;20169;-74
2022/12/18 08:54:06;;;;;;;8.38;4.20;;;17.30;99.90;;;;;;4969580;28;20043;-74
2022/12/18 08:56:34;;;;;;;6.78;4.18;;;17.30;99.90;;;;;;4946205;28;20062;-75
2022/12/18 08:59:02;;;;;;;8.70;4.20;;;17.30;99.90;;;;;;4967128;28;20058;-75
2022/12/18 09:01:30;;;;;;;9.90;4.15;;;17.40;99.90;;;;;;4957997;28;20036;-75
2022/12/18 09:03:58;;;;;;;5.78;3.20;;;17.60;99.90;;;;;;4958548;28;20063;-74
2022/12/18 09:06:26;;;;;;;7.88;3.72;;;17.70;99.90;;;;;;4965625;28;20069;-77
2022/12/18 09:08:54;;;;;;;6.53;3.28;;;17.80;99.90;;;;;;4963511;28;20137;-76
2022/12/18 09:11:25;;;;;;;6.20;2.85;;;17.90;99.90;;;;;;4961191;28;20071;-75
2022/12/18 09:13:54;;;;;;;8.15;3.60;;;17.90;99.90;;;;;;4960764;28;20526;-75
2022/12/18 09:16:23;;;;;;;10.23;4.15;;;18.00;99.90;;;;;;4967970;28;20035;-75
2022/12/18 09:18:59;;;;;;;4.32;2.65;;;18.10;99.90;;;;;;4961606;28;20047;-75
2022/12/18 09:21:30;;;;;;;4.47;2.17;;;18.40;99.90;;;;;;4981079;28;20134;-78
2022/12/18 09:23:57;;;;;;;8.10;3.10;;;18.50;99.90;;;;;;4967507;28;20039;-75
2022/12/18 09:26:26;;;;;;;7.63;2.60;;;18.50;99.90;;;;;;4968726;28;20623;-74
2022/12/18 09:28:54;;;;;;;8.95;3.35;;;18.50;99.90;;;;;;4965892;28;20050;-75
2022/12/18 09:31:23;;;;;;;10.07;3.25;;;18.40;99.90;;;;;;4967492;28;20102;-75
2022/12/18 09:33:51;;;;;;;4.18;2.20;;;18.40;99.90;;;;;;4967236;28;20046;-75
2022/12/18 09:36:19;;;;;;;6.72;4.25;;;18.30;99.90;;;;;;4968625;28;20082;-74
2022/12/18 09:38:47;;;;;;;6.43;2.75;;;18.20;99.90;;;;;;4966019;28;20115;-77
2022/12/18 09:41:33;;;;;;;8.18;3.25;;;18.10;99.90;;;;;;4965386;28;20383;-75
2022/12/18 09:44:21;;;;;;;;;;;18.00;99.90;;;;;;4961488;28;20077;-75
2022/12/18 09:46:54;;;;;;;;;;;18.10;99.90;;;;;;4969015;28;20036;-76
2022/12/18 09:49:25;;;;;;;6.65;3.33;;;18.00;99.90;;;;;;4949602;28;20260;-74
2022/12/18 09:52:09;;;;;;;6.35;2.15;;;18.00;99.90;;;;;;4965106;28;20054;-77
2022/12/18 09:54:46;;;;;;;4.05;1.85;;;18.00;99.90;;;;;;4967245;28;20050;-75
2022/12/18 09:57:18;;;;;;;5.35;2.42;;;18.20;99.90;;;;;;4962644;28;20050;-74
2022/12/18 09:59:51;;;;;;;5.40;2.60;;;18.30;99.90;;;;;;4955960;28;20137;-75
2022/12/18 10:02:22;;;;;;;7.35;1.92;;;18.50;99.90;;;;;;4965858;28;20777;-75
2022/12/18 10:05:05;;;;;;;6.85;2.00;;;18.70;99.90;;;;;;4953858;28;20518;-75
2022/12/18 10:07:47;;;;;;;5.38;1.92;;;18.90;99.90;;;;;;4968618;28;20385;-75
2022/12/18 10:10:20;;;;;;;3.95;3.05;;;19.10;99.90;;;;;;4970466;28;20149;-75
2022/12/18 10:13:11;;;;;;;8.98;3.35;;;19.40;99.90;;;;;;4960309;28;20045;-75
2022/12/18 10:16:02;;;;;;;8.52;2.67;;;19.30;99.90;;;;;;4944098;28;20110;-74
2022/12/18 10:18:54;;;;;;;5.45;2.63;;;19.30;99.90;;;;;;4960068;28;20074;-76
2022/12/18 10:21:36;;;;;;;6.43;2.33;;;19.40;99.90;;;;;;4947444;29;20141;-75
2022/12/18 10:24:36;;;;;;;4.97;2.95;;;19.60;99.90;;;;;;4948473;28;20087;-74
2022/12/18 10:27:18;;;;;;;5.00;1.75;;;19.70;99.90;;;;;;4955335;28;20054;-75
2022/12/18 10:29:46;;;;;;;5.30;2.03;;;19.80;99.90;;;;;;4968041;28;20469;-77
2022/12/18 10:32:30;;;;;;;3.28;1.80;;;19.90;99.90;;;;;;4952867;28;20050;-75
2022/12/18 10:34:58;;;;;;;3.65;2.00;;;20.10;99.90;;;;;;4959961;28;20039;-75
2022/12/18 10:37:29;;;;;;;2.83;1.75;;;20.20;99.90;;;;;;4960100;28;20102;-75
2022/12/18 10:40:15;;;;;;;5.18;2.08;;;20.30;99.90;;;;;;4964030;28;20051;-75
2022/12/18 10:43:04;;;;;;;4.53;2.05;;;20.30;99.90;;;;;;4969042;28;20050;-76
2022/12/18 10:45:32;;;;;;;4.68;2.28;;;20.20;99.90;;;;;;4965098;28;20047;-78
2022/12/18 10:48:00;;;;;;;4.72;2.15;;;20.00;99.90;;;;;;4950970;28;20397;-77
2022/12/18 10:50:34;;;;;;;4.47;1.50;;;19.90;99.90;;;;;;4956474;28;20047;-75
2022/12/18 10:53:25;;;;;;;4.07;2.40;;;19.90;99.90;;;;;;4971984;28;20090;-76
2022/12/18 10:55:55;;;;;;;4.05;1.75;;;19.90;99.90;;;;;;4963062;28;20214;-75
2022/12/18 10:58:31;;;;;;;3.97;1.70;;;20.10;99.90;;;;;;4956836;28;20047;-76
2022/12/18 11:01:10;;;;;;;3.30;1.70;;;20.20;99.90;;;;;;4952506;28;20043;-76
2022/12/18 11:03:39;;;;;;;8.48;2.00;;;20.30;99.90;;;;;;4961871;28;20067;-74
2022/12/18 11:06:17;;;;;;;4.63;1.70;;;20.40;99.90;;;;;;4966530;28;20051;-75
2022/12/18 11:09:02;;;;;;;3.53;2.17;;;20.50;99.90;;;;;;4964779;28;20142;-74
2022/12/18 11:11:33;;;;;;;5.28;2.40;;;20.40;99.90;;;;;;4986878;28;20049;-75
2022/12/18 11:14:17;;;;;;;7.00;2.13;;;20.20;99.90;;;;;;4973061;28;20051;-75
2022/12/18 11:16:47;;;;;;;5.95;3.08;;;20.10;99.90;;;;;;4973601;28;20047;-75
2022/12/18 11:19:39;;;;;;;5.45;2.45;;;20.10;99.90;;;;;;4971899;28;20038;-74
2022/12/18 11:22:28;;;;;;;9.98;3.40;;;20.00;99.90;;;;;;4956514;28;20341;-75
2022/12/18 11:24:59;;;;;;;5.30;1.98;;;20.00;99.90;;;;;;4972053;28;20066;-77
2022/12/18 11:27:54;;;;;;;4.10;1.85;;;20.00;99.90;;;;;;4971345;28;20992;-76
2022/12/18 11:30:21;;;;;;;3.05;1.80;;;19.90;99.90;;;;;;4970155;28;20402;-75
2022/12/18 11:32:57;;;;;;;4.35;2.50;;;19.90;99.90;;;;;;4958357;28;20042;-73
2022/12/18 11:35:48;;;;;;;7.43;2.78;;;20.00;99.90;;;;;;4971900;28;20050;-74
2022/12/18 11:38:25;;;;;;;5.88;2.03;;;20.20;99.90;;;;;;4968632;28;20043;-74
2022/12/18 11:40:58;;;;;;;;;;;20.20;99.90;;;;;;4962104;28;20055;-74
2022/12/18 11:43:44;;;;;;;9.13;2.15;;;20.40;99.90;;;;;;4963119;28;19928;-74
2022/12/18 11:46:17;;;;;;;3.70;1.70;;;20.50;99.90;;;;;;4971748;28;20046;-74
2022/12/18 11:49:18;;;;;;;6.30;2.20;;;20.70;99.90;;;;;;4971505;28;20125;-74
2022/12/18 11:52:01;;;;;;;6.97;2.78;;;20.60;99.90;;;;;;4950331;28;20058;-73
2022/12/18 11:54:28;;;;;;;9.05;2.63;;;20.60;99.90;;;;;;4953605;28;20043;-74
2022/12/18 11:57:05;;;;;;;5.43;1.80;;;20.50;99.90;;;;;;4953498;28;20055;-77
2022/12/18 12:00:01;;;;;;;3.03;1.63;;;20.20;99.90;;;;;;4951649;29;20192;-75
2022/12/18 12:02:41;;;;;;;2.90;1.38;;;20.00;99.90;;;;;;4954369;28;20146;-75
2022/12/18 12:05:21;;;;;;;3.03;1.75;;;20.00;99.90;;;;;;4953670;28;20584;-76
2022/12/18 12:07:56;;;;;;;5.72;2.13;;;20.00;99.90;;;;;;4951645;29;20464;-74
2022/12/18 12:10:54;;;;;;;3.85;3.08;;;20.00;99.90;;;;;;4954773;28;20055;-76
2022/12/18 12:13:31;;;;;;;3.75;2.08;;;20.00;99.90;;;;;;4953360;28;20142;-76
2022/12/18 12:16:01;;;;;;;4.50;1.90;;;20.10;99.90;;;;;;4951550;29;20415;-74
2022/12/18 12:18:40;;;;;;;2.25;1.50;;;19.90;99.90;;;;;;4951646;29;20154;-74
2022/12/18 12:21:33;;;;;;;2.70;1.67;;;19.60;99.90;;;;;;4957937;28;20051;-74
2022/12/18 12:24:19;;;;;;;5.07;2.17;;;19.50;99.90;;;;;;4952923;28;20050;-74
2022/12/18 12:27:08;;;;;;;3.03;1.65;;;19.50;99.90;;;;;;4951703;29;20461;-74
2022/12/18 12:30:01;;;;;;;3.67;2.17;;;19.50;99.90;;;;;;4951251;29;20047;-74
2022/12/18 12:32:47;;;;;;;5.60;3.15;;;19.60;99.90;;;;;;4946535;28;20082;-75
2022/12/18 12:35:46;;;;;;;3.60;1.92;;;19.60;99.90;;;;;;4971675;28;20050;-75
2022/12/18 12:38:25;;;;;;;5.40;2.50;;;19.70;99.90;;;;;;4971791;28;20577;-74
2022/12/18 12:41:06;;;;;;;8.30;2.72;;;19.80;99.90;;;;;;4948378;29;20521;-74
2022/12/18 12:43:49;;;;;;;4.18;1.80;;;19.60;99.90;;;;;;4951801;28;20519;-74
2022/12/18 12:46:20;;;;;;;3.80;1.70;;;19.70;99.90;;;;;;4952530;28;20494;-75
2022/12/18 12:48:50;;;;;;;5.72;2.53;;;19.70;99.90;;;;;;4951492;29;20127;-76
2022/12/18 12:51:28;;;;;;;5.63;2.15;;;19.70;99.90;;;;;;4942007;28;20054;-76
2022/12/18 12:53:58;;;;;;;3.50;2.00;;;19.80;99.90;;;;;;4952482;28;20074;-77
2022/12/18 12:56:56;;;;;;;5.13;2.55;;;19.70;99.90;;;;;;4952606;28;20043;-74
2022/12/18 12:59:30;;;;;;;2.83;1.48;;;19.70;99.90;;;;;;4952523;28;20051;-74
2022/12/18 13:02:38;;;;;;;6.10;2.20;;;19.50;99.90;;;;;;4957866;28;20066;-74
2022/12/18 13:05:17;;;;;;;3.63;2.03;;;19.40;99.90;;;;;;4892992;29;20067;-74
2022/12/18 13:07:56;;;;;;;3.88;2.05;;;19.30;99.90;;;;;;4892871;29;20112;-73
2022/12/18 13:10:31;;;;;;;3.95;2.13;;;19.20;99.90;;;;;;4936343;28;20166;-75
2022/12/18 13:13:15;;;;;;;8.02;2.28;;;19.10;99.90;;;;;;4969663;28;20120;-74
2022/12/18 13:15:45;;;;;;;4.85;2.25;;;19.20;99.90;;;;;;4963387;28;20050;-74
2022/12/18 13:18:20;;;;;;;3.75;2.70;;;19.10;99.90;;;;;;4950436;29;20047;-75
2022/12/18 13:20:59;;;;;;;5.13;2.22;;;19.00;99.90;;;;;;4937092;28;20074;-74
2022/12/18 13:23:36;;;;;;;5.07;2.20;;;18.90;99.90;;;;;;4950466;29;20070;-75
2022/12/18 13:26:09;;;;;;;4.90;1.67;;;18.80;99.90;;;;;;4953619;28;20178;-75